createdAt,value
2022-09-14T00:00:32.241Z,16.25
2022-09-14T00:01:25.708Z,16.30
2022-09-14T00:02:12.875Z,16.27
2022-09-14T00:02:59.735Z,16.23
2022-09-14T00:03:46.414Z,16.21
2022-09-14T00:04:33.051Z,16.20
2022-09-14T00:05:19.630Z,16.18
2022-09-14T00:06:07.873Z,16.13
2022-09-14T00:06:54.521Z,16.11
2022-09-14T00:07:41.111Z,16.10
2022-09-14T00:08:27.731Z,16.10
2022-09-14T00:09:20.473Z,16.07
2022-09-14T00:10:07.420Z,16.06
2022-09-14T00:10:54.021Z,16.04
2022-09-14T00:11:41.421Z,16.02
2022-09-14T00:12:28.231Z,16.06
2022-09-14T00:13:15.232Z,16.02
2022-09-14T00:14:02.971Z,16.01
2022-09-14T00:14:49.583Z,16.02
2022-09-14T00:15:40.360Z,16.02
2022-09-14T00:16:33.650Z,16.07
2022-09-14T00:17:20.413Z,16.03
2022-09-14T00:18:08.622Z,15.97
2022-09-14T00:18:59.190Z,15.96
2022-09-14T00:19:45.894Z,15.90
2022-09-14T00:20:33.281Z,15.92
2022-09-14T00:21:20.708Z,15.90
2022-09-14T00:22:07.381Z,15.87
2022-09-14T00:22:54.028Z,15.88
2022-09-14T00:23:42.222Z,15.83
2022-09-14T00:24:35.883Z,15.84
2022-09-14T00:25:22.481Z,15.80
2022-09-14T00:26:15.460Z,15.80
2022-09-14T00:27:03.861Z,15.77
2022-09-14T00:27:50.460Z,15.76
2022-09-14T00:28:42.339Z,15.74
2022-09-14T00:29:30.310Z,15.74
2022-09-14T00:30:17.063Z,15.68
2022-09-14T00:31:05.061Z,15.66
2022-09-14T00:31:52.329Z,15.61
2022-09-14T00:32:39.000Z,15.61
2022-09-14T00:33:25.600Z,15.60
2022-09-14T00:34:15.080Z,15.57
2022-09-14T00:35:01.671Z,15.55
2022-09-14T00:35:48.397Z,15.50
2022-09-14T00:36:39.930Z,15.54
2022-09-14T00:37:26.531Z,15.52
2022-09-14T00:38:13.212Z,15.48
2022-09-14T00:39:00.907Z,15.46
2022-09-14T00:39:48.581Z,15.47
2022-09-14T00:40:35.345Z,15.42
2022-09-14T00:41:24.760Z,15.43
2022-09-14T00:42:15.761Z,15.45
2022-09-14T00:43:02.490Z,15.43
2022-09-14T00:44:00.140Z,15.35
2022-09-14T00:44:46.654Z,15.34
2022-09-14T00:45:33.444Z,15.32
2022-09-14T00:46:20.919Z,15.26
2022-09-14T00:47:07.650Z,15.26
2022-09-14T00:47:54.507Z,15.29
2022-09-14T00:48:41.122Z,15.30
2022-09-14T00:49:32.080Z,15.30
2022-09-14T00:50:18.990Z,15.33
2022-09-14T00:51:05.877Z,15.39
2022-09-14T00:52:04.040Z,15.31
2022-09-14T00:52:50.840Z,15.25
2022-09-14T00:53:37.501Z,15.25
2022-09-14T00:54:24.530Z,15.22
2022-09-14T00:55:14.663Z,15.22
2022-09-14T00:56:01.240Z,15.21
2022-09-14T00:56:48.420Z,15.26
2022-09-14T00:57:38.304Z,15.26
2022-09-14T00:58:24.982Z,15.25
2022-09-14T00:59:20.540Z,15.24
2022-09-14T01:00:10.420Z,15.24
2022-09-14T01:00:57.675Z,15.20
2022-09-14T01:01:44.870Z,15.21
2022-09-14T01:02:31.719Z,15.17
2022-09-14T01:03:18.450Z,15.24
2022-09-14T01:04:05.120Z,15.26
2022-09-14T01:04:52.106Z,15.27
2022-09-14T01:05:55.401Z,15.31
2022-09-14T01:06:52.579Z,15.34
2022-09-14T01:08:07.326Z,15.33
2022-09-14T01:09:04.271Z,15.31
2022-09-14T01:10:34.720Z,15.28
2022-09-14T01:11:27.269Z,15.27
2022-09-14T01:12:35.880Z,15.29
2022-09-14T01:13:56.184Z,15.25
2022-09-14T01:14:54.793Z,15.31
2022-09-14T01:16:16.433Z,15.35
2022-09-14T01:17:18.783Z,15.36
2022-09-14T01:18:16.953Z,15.46
2022-09-14T01:19:14.840Z,15.39
2022-09-14T01:20:16.420Z,15.32
2022-09-14T01:21:12.623Z,15.28
2022-09-14T01:22:17.340Z,15.31
2022-09-14T01:23:34.220Z,15.30
2022-09-14T01:24:44.260Z,15.29
2022-09-14T01:25:55.150Z,15.31
2022-09-14T01:26:56.725Z,15.36
2022-09-14T01:27:44.268Z,15.36
2022-09-14T01:28:38.189Z,15.33
2022-09-14T01:29:36.800Z,15.32
2022-09-14T01:30:24.519Z,15.29
2022-09-14T01:31:17.964Z,15.29
2022-09-14T01:32:29.139Z,15.31
2022-09-14T01:33:21.500Z,15.28
2022-09-14T01:34:16.750Z,15.28
2022-09-14T01:35:31.939Z,15.26
2022-09-14T01:36:18.680Z,15.26
2022-09-14T01:37:13.313Z,15.27
2022-09-14T01:38:09.726Z,15.26
2022-09-14T01:38:56.758Z,15.27
2022-09-14T01:39:47.381Z,15.26
2022-09-14T01:40:38.183Z,15.24
2022-09-14T01:41:29.323Z,15.27
2022-09-14T01:42:17.400Z,15.27
2022-09-14T01:43:09.169Z,15.25
2022-09-14T01:44:11.948Z,15.23
2022-09-14T01:45:01.374Z,15.25
2022-09-14T01:45:57.264Z,15.30
2022-09-14T01:46:48.044Z,15.28
2022-09-14T01:47:39.979Z,15.31
2022-09-14T01:49:25.179Z,15.36
2022-09-14T01:50:16.520Z,15.34
2022-09-14T01:51:10.570Z,15.31
2022-09-14T01:52:02.810Z,15.28
2022-09-14T01:52:59.862Z,15.25
2022-09-14T01:53:55.901Z,15.26
2022-09-14T01:54:50.639Z,15.28
2022-09-14T01:55:43.899Z,15.25
2022-09-14T01:56:39.081Z,15.30
2022-09-14T01:57:56.969Z,15.27
2022-09-14T01:59:03.530Z,15.29
2022-09-14T01:59:54.399Z,15.37
2022-09-14T02:00:44.123Z,15.36
2022-09-14T02:01:37.957Z,15.39
2022-09-14T02:02:29.210Z,15.38
2022-09-14T02:03:18.978Z,15.47
2022-09-14T02:04:08.989Z,15.54
2022-09-14T02:05:11.319Z,15.57
2022-09-14T02:06:05.699Z,15.56
2022-09-14T02:06:52.359Z,15.57
2022-09-14T02:07:39.179Z,15.54
2022-09-14T02:08:28.581Z,15.55
2022-09-14T02:09:19.705Z,15.56
2022-09-14T02:10:09.745Z,15.63
2022-09-14T02:10:57.600Z,15.66
2022-09-14T02:11:44.698Z,15.67
2022-09-14T02:12:31.419Z,15.70
2022-09-14T02:13:18.074Z,15.68
2022-09-14T02:14:05.097Z,15.84
2022-09-14T02:14:53.413Z,15.85
2022-09-14T02:15:40.158Z,15.86
2022-09-14T02:16:26.878Z,15.89
2022-09-14T02:17:13.913Z,15.85
2022-09-14T02:18:00.910Z,15.90
2022-09-14T02:18:47.550Z,15.88
2022-09-14T02:19:40.179Z,15.93
2022-09-14T02:20:41.723Z,15.99
2022-09-14T02:21:31.318Z,16.00
2022-09-14T02:22:17.921Z,16.00
2022-09-14T02:23:05.369Z,15.98
2022-09-14T02:23:52.359Z,16.09
2022-09-14T02:24:39.109Z,16.15
2022-09-14T02:25:25.769Z,16.19
2022-09-14T02:26:12.600Z,16.21
2022-09-14T02:26:59.960Z,16.21
2022-09-14T02:27:48.239Z,16.29
2022-09-14T02:28:34.939Z,16.37
2022-09-14T02:29:21.640Z,16.34
2022-09-14T02:30:08.950Z,16.38
2022-09-14T02:31:05.099Z,16.46
2022-09-14T02:32:30.860Z,16.46
2022-09-14T02:33:26.679Z,16.56
2022-09-14T02:34:22.260Z,16.66
2022-09-14T02:35:14.440Z,16.68
2022-09-14T02:36:16.981Z,16.71
2022-09-14T02:37:24.918Z,16.77
2022-09-14T02:38:22.079Z,16.86
2022-09-14T02:39:11.280Z,16.98
2022-09-14T02:40:26.784Z,17.01
2022-09-14T02:41:33.020Z,17.10
2022-09-14T02:42:34.211Z,17.14
2022-09-14T02:43:42.909Z,17.12
2022-09-14T02:44:37.819Z,17.23
2022-09-14T02:46:01.481Z,17.18
2022-09-14T02:46:58.915Z,17.24
2022-09-14T02:48:17.820Z,17.31
2022-09-14T02:49:07.219Z,17.38
2022-09-14T02:50:03.982Z,17.38
2022-09-14T02:51:16.099Z,17.44
2022-09-14T02:52:16.734Z,17.43
2022-09-14T02:53:21.742Z,17.44
2022-09-14T02:54:31.059Z,17.46
2022-09-14T02:55:20.439Z,17.54
2022-09-14T02:56:09.159Z,17.53
2022-09-14T02:57:00.359Z,17.55
2022-09-14T02:58:04.398Z,17.57
2022-09-14T02:58:51.083Z,17.53
2022-09-14T02:59:37.942Z,17.49
2022-09-14T03:00:24.561Z,17.48
2022-09-14T03:01:17.231Z,17.48
2022-09-14T03:02:04.116Z,17.53
2022-09-14T03:02:50.802Z,17.44
2022-09-14T03:03:37.442Z,17.39
2022-09-14T03:04:24.081Z,17.41
2022-09-14T03:05:10.670Z,17.42
2022-09-14T03:05:57.539Z,17.43
2022-09-14T03:06:44.139Z,17.51
2022-09-14T03:07:30.780Z,17.55
2022-09-14T03:08:17.410Z,17.54
2022-09-14T03:09:04.009Z,17.52
2022-09-14T03:09:50.680Z,17.52
2022-09-14T03:10:37.762Z,17.54
2022-09-14T03:11:24.419Z,17.55
2022-09-14T03:12:11.019Z,17.53
2022-09-14T03:12:57.899Z,17.53
2022-09-14T03:13:44.602Z,17.59
2022-09-14T03:14:31.202Z,17.69
2022-09-14T03:15:17.800Z,17.67
2022-09-14T03:16:10.368Z,17.66
2022-09-14T03:16:57.006Z,17.65
2022-09-14T03:17:47.540Z,17.64
2022-09-14T03:18:34.368Z,17.69
2022-09-14T03:19:20.987Z,17.73
2022-09-14T03:20:07.899Z,17.70
2022-09-14T03:20:54.530Z,17.62
2022-09-14T03:21:41.150Z,17.58
2022-09-14T03:22:27.759Z,17.61
2022-09-14T03:23:14.681Z,17.68
2022-09-14T03:24:01.392Z,17.73
2022-09-14T03:24:48.019Z,17.72
2022-09-14T03:25:43.343Z,17.73
2022-09-14T03:26:29.983Z,17.74
2022-09-14T03:27:16.640Z,17.72
2022-09-14T03:28:03.400Z,17.70
2022-09-14T03:28:55.299Z,17.69
2022-09-14T03:29:42.000Z,17.70
2022-09-14T03:30:29.229Z,17.75
2022-09-14T03:31:16.160Z,17.80
2022-09-14T03:32:02.870Z,17.76
2022-09-14T03:32:49.959Z,17.76
2022-09-14T03:33:36.580Z,17.70
2022-09-14T03:34:23.161Z,17.67
2022-09-14T03:35:09.860Z,17.70
2022-09-14T03:35:56.527Z,17.71
2022-09-14T03:36:43.120Z,17.71
2022-09-14T03:37:29.711Z,17.71
2022-09-14T03:38:16.335Z,17.78
2022-09-14T03:39:03.040Z,17.74
2022-09-14T03:39:49.693Z,17.69
2022-09-14T03:40:36.389Z,17.67
2022-09-14T03:41:24.399Z,17.66
2022-09-14T03:42:11.019Z,17.70
2022-09-14T03:42:57.821Z,17.73
2022-09-14T03:43:45.120Z,17.74
2022-09-14T03:44:31.759Z,17.75
2022-09-14T03:45:20.219Z,17.79
2022-09-14T03:46:15.574Z,17.81
2022-09-14T03:47:02.336Z,17.77
2022-09-14T03:47:49.701Z,17.79
2022-09-14T03:48:36.500Z,17.80
2022-09-14T03:49:23.100Z,17.78
2022-09-14T03:50:12.150Z,17.75
2022-09-14T03:51:03.001Z,17.85
2022-09-14T03:51:49.609Z,17.83
2022-09-14T03:52:37.300Z,17.81
2022-09-14T03:53:23.920Z,17.80
2022-09-14T03:54:10.519Z,17.75
2022-09-14T03:54:57.289Z,17.73
2022-09-14T03:55:43.963Z,17.75
2022-09-14T03:56:31.126Z,17.75
2022-09-14T03:57:18.169Z,17.73
2022-09-14T03:58:04.778Z,17.73
2022-09-14T03:58:51.718Z,17.72
2022-09-14T03:59:42.980Z,17.72
2022-09-14T04:00:30.270Z,17.71
2022-09-14T04:01:19.099Z,17.68
2022-09-14T04:02:05.872Z,17.67
2022-09-14T04:02:52.579Z,17.65
2022-09-14T04:03:39.230Z,17.65
2022-09-14T04:04:26.109Z,17.63
2022-09-14T04:05:12.711Z,17.59
2022-09-14T04:05:59.790Z,17.60
2022-09-14T04:06:47.640Z,17.61
2022-09-14T04:07:34.320Z,17.68
2022-09-14T04:08:20.941Z,17.67
2022-09-14T04:09:07.596Z,17.66
2022-09-14T04:09:54.192Z,17.64
2022-09-14T04:10:40.970Z,17.57
2022-09-14T04:11:29.020Z,17.53
2022-09-14T04:12:15.700Z,17.53
2022-09-14T04:13:02.319Z,17.57
2022-09-14T04:13:49.553Z,17.56
2022-09-14T04:14:36.402Z,17.54
2022-09-14T04:15:23.069Z,17.51
2022-09-14T04:16:09.828Z,17.56
2022-09-14T04:16:56.489Z,17.54
2022-09-14T04:17:43.224Z,17.49
2022-09-14T04:18:30.067Z,17.46
2022-09-14T04:19:16.691Z,17.45
2022-09-14T04:20:03.699Z,17.48
2022-09-14T04:21:05.765Z,17.46
2022-09-14T04:21:54.560Z,17.48
2022-09-14T04:22:41.200Z,17.49
2022-09-14T04:23:28.080Z,17.51
2022-09-14T04:24:16.206Z,17.51
2022-09-14T04:25:03.221Z,17.55
2022-09-14T04:25:49.902Z,17.54
2022-09-14T04:26:37.089Z,17.57
2022-09-14T04:27:23.689Z,17.53
2022-09-14T04:28:20.204Z,17.53
2022-09-14T04:29:07.500Z,17.60
2022-09-14T04:29:54.103Z,17.65
2022-09-14T04:30:40.681Z,17.60
2022-09-14T04:31:27.484Z,17.60
2022-09-14T04:32:14.127Z,17.60
2022-09-14T04:33:00.720Z,17.60
2022-09-14T04:33:50.601Z,17.61
2022-09-14T04:34:37.322Z,17.68
2022-09-14T04:35:23.921Z,17.70
2022-09-14T04:36:13.350Z,17.70
2022-09-14T04:36:59.941Z,17.68
2022-09-14T04:37:46.580Z,17.70
2022-09-14T04:38:33.239Z,17.72
2022-09-14T04:39:20.170Z,17.74
2022-09-14T04:40:07.483Z,17.75
2022-09-14T04:40:54.181Z,17.77
2022-09-14T04:41:41.019Z,17.81
2022-09-14T04:42:27.722Z,17.91
2022-09-14T04:43:14.330Z,17.91
2022-09-14T04:44:01.109Z,17.87
2022-09-14T04:44:47.741Z,17.89
2022-09-14T04:45:34.398Z,17.90
2022-09-14T04:46:22.748Z,17.91
2022-09-14T04:47:09.379Z,17.95
2022-09-14T04:47:55.959Z,18.04
2022-09-14T04:48:43.068Z,18.04
2022-09-14T04:49:29.730Z,18.10
2022-09-14T04:50:16.351Z,18.12
2022-09-14T04:51:19.810Z,18.11
2022-09-14T04:52:06.413Z,18.12
2022-09-14T04:52:53.024Z,18.12
2022-09-14T04:53:40.180Z,18.12
2022-09-14T04:54:26.860Z,18.13
2022-09-14T04:55:13.800Z,18.12
2022-09-14T04:56:01.609Z,18.15
2022-09-14T04:56:48.328Z,18.21
2022-09-14T04:57:34.941Z,18.27
2022-09-14T04:58:21.540Z,18.27
2022-09-14T04:59:08.290Z,18.29
2022-09-14T04:59:54.899Z,18.32
2022-09-14T05:00:41.510Z,18.37
2022-09-14T05:01:30.049Z,18.41
2022-09-14T05:02:16.925Z,18.42
2022-09-14T05:03:05.041Z,18.47
2022-09-14T05:03:52.389Z,18.48
2022-09-14T05:04:38.999Z,18.49
2022-09-14T05:05:25.821Z,18.60
2022-09-14T05:06:15.637Z,18.66
2022-09-14T05:07:02.309Z,18.65
2022-09-14T05:07:48.959Z,18.64
2022-09-14T05:08:36.660Z,18.56
2022-09-14T05:09:23.282Z,18.57
2022-09-14T05:10:10.022Z,18.56
2022-09-14T05:10:57.850Z,18.56
2022-09-14T05:11:44.770Z,18.59
2022-09-14T05:12:31.380Z,18.62
2022-09-14T05:13:18.002Z,18.65
2022-09-14T05:14:05.342Z,18.65
2022-09-14T05:14:51.973Z,18.66
2022-09-14T05:15:38.641Z,18.68
2022-09-14T05:16:30.250Z,18.67
2022-09-14T05:17:16.880Z,18.66
2022-09-14T05:18:03.561Z,18.67
2022-09-14T05:18:50.991Z,18.66
2022-09-14T05:19:37.582Z,18.66
2022-09-14T05:20:24.241Z,18.67
2022-09-14T05:21:13.310Z,18.68
2022-09-14T05:21:59.929Z,18.67
2022-09-14T05:22:49.840Z,18.69
2022-09-14T05:23:37.102Z,18.70
2022-09-14T05:24:23.781Z,18.68
2022-09-14T05:25:10.421Z,18.63
2022-09-14T05:25:57.320Z,18.62
2022-09-14T05:26:45.283Z,18.63
2022-09-14T05:27:32.162Z,18.64
2022-09-14T05:28:18.759Z,18.66
2022-09-14T05:29:05.629Z,18.67
2022-09-14T05:29:52.259Z,18.67
2022-09-14T05:30:41.709Z,18.66
2022-09-14T05:31:29.317Z,18.67
2022-09-14T05:32:15.940Z,18.63
2022-09-14T05:33:02.578Z,18.61
2022-09-14T05:33:49.965Z,18.59
2022-09-14T05:34:36.900Z,18.60
2022-09-14T05:35:23.619Z,18.67
2022-09-14T05:36:10.525Z,18.70
2022-09-14T05:36:57.124Z,18.71
2022-09-14T05:37:43.730Z,18.73
2022-09-14T05:38:31.385Z,18.73
2022-09-14T05:39:23.031Z,18.70
2022-09-14T05:40:10.589Z,18.72
2022-09-14T05:40:57.320Z,18.71
2022-09-14T05:41:43.943Z,18.71
2022-09-14T05:42:30.620Z,18.70
2022-09-14T05:43:17.222Z,18.73
2022-09-14T05:44:04.010Z,18.72
2022-09-14T05:44:50.771Z,18.69
2022-09-14T05:45:37.398Z,18.69
2022-09-14T05:46:24.158Z,18.71
2022-09-14T05:47:10.798Z,18.70
2022-09-14T05:48:02.220Z,18.73
2022-09-14T05:48:51.767Z,18.74
2022-09-14T05:49:38.597Z,18.78
2022-09-14T05:50:25.259Z,18.81
2022-09-14T05:51:16.632Z,18.83
2022-09-14T05:52:03.475Z,18.84
2022-09-14T05:52:51.601Z,18.83
2022-09-14T05:53:38.309Z,18.83
2022-09-14T05:54:25.321Z,18.80
2022-09-14T05:55:11.939Z,18.78
2022-09-14T05:56:06.359Z,18.76
2022-09-14T05:56:52.996Z,18.76
2022-09-14T05:57:39.579Z,18.77
2022-09-14T05:58:27.090Z,18.77
2022-09-14T05:59:13.846Z,18.75
2022-09-14T06:00:00.531Z,18.77
2022-09-14T06:00:47.190Z,18.82
2022-09-14T06:01:33.994Z,18.84
2022-09-14T06:02:20.799Z,18.88
2022-09-14T06:03:07.591Z,18.96
2022-09-14T06:04:00.425Z,19.04
2022-09-14T06:04:47.047Z,19.08
2022-09-14T06:05:35.779Z,19.12
2022-09-14T06:06:22.720Z,19.20
2022-09-14T06:07:18.289Z,19.25
2022-09-14T06:08:06.044Z,19.32
2022-09-14T06:08:54.277Z,19.34
2022-09-14T06:09:41.000Z,19.35
2022-09-14T06:10:27.651Z,19.39
2022-09-14T06:11:19.630Z,19.38
2022-09-14T06:12:06.501Z,19.40
2022-09-14T06:12:55.482Z,19.42
2022-09-14T06:13:43.315Z,19.41
2022-09-14T06:14:30.070Z,19.37
2022-09-14T06:15:17.060Z,19.38
2022-09-14T06:16:09.430Z,19.40
2022-09-14T06:16:56.169Z,19.42
2022-09-14T06:17:42.930Z,19.44
2022-09-14T06:18:32.129Z,19.47
2022-09-14T06:19:18.931Z,19.51
2022-09-14T06:20:07.971Z,19.55
2022-09-14T06:20:54.725Z,19.57
2022-09-14T06:21:42.219Z,19.61
2022-09-14T06:22:28.881Z,19.63
2022-09-14T06:23:15.579Z,19.70
2022-09-14T06:24:02.721Z,19.81
2022-09-14T06:24:49.480Z,19.84
2022-09-14T06:25:36.181Z,19.80
2022-09-14T06:26:22.962Z,19.87
2022-09-14T06:27:10.271Z,19.88
2022-09-14T06:27:57.058Z,19.96
2022-09-14T06:28:44.149Z,20.03
2022-09-14T06:29:31.310Z,20.04
2022-09-14T06:30:18.080Z,20.08
2022-09-14T06:31:08.680Z,20.09
2022-09-14T06:31:55.364Z,20.03
2022-09-14T06:32:42.279Z,20.09
2022-09-14T06:33:29.090Z,20.14
2022-09-14T06:34:15.822Z,20.12
2022-09-14T06:35:03.960Z,20.11
2022-09-14T06:36:09.327Z,20.13
2022-09-14T06:36:56.599Z,20.07
2022-09-14T06:37:43.378Z,20.12
2022-09-14T06:38:30.649Z,20.13
2022-09-14T06:39:17.803Z,20.12
2022-09-14T06:40:05.157Z,20.09
2022-09-14T06:40:57.251Z,20.07
2022-09-14T06:41:44.261Z,20.09
2022-09-14T06:42:31.181Z,20.08
2022-09-14T06:43:17.899Z,20.03
2022-09-14T06:44:04.802Z,20.03
2022-09-14T06:44:51.462Z,20.05
2022-09-14T06:45:38.521Z,20.05
2022-09-14T06:46:31.350Z,20.07
2022-09-14T06:47:18.099Z,20.09
2022-09-14T06:48:04.990Z,20.13
2022-09-14T06:48:53.052Z,20.24
2022-09-14T06:49:39.811Z,20.22
2022-09-14T06:50:26.751Z,20.21
2022-09-14T06:51:16.542Z,20.29
2022-09-14T06:52:03.285Z,20.36
2022-09-14T06:52:50.189Z,20.42
2022-09-14T06:53:36.969Z,20.47
2022-09-14T06:54:24.971Z,20.43
2022-09-14T06:55:11.939Z,20.40
2022-09-14T06:55:59.579Z,20.45
2022-09-14T06:56:46.821Z,20.49
2022-09-14T06:57:33.580Z,20.54
2022-09-14T06:58:20.380Z,20.57
2022-09-14T06:59:08.940Z,20.66
2022-09-14T06:59:55.839Z,20.74
2022-09-14T07:00:42.860Z,20.72
2022-09-14T07:01:30.192Z,20.75
2022-09-14T07:02:16.934Z,20.78
2022-09-14T07:03:04.851Z,20.88
2022-09-14T07:03:52.642Z,20.86
2022-09-14T07:04:39.410Z,20.84
2022-09-14T07:05:26.199Z,20.71
2022-09-14T07:06:24.489Z,20.68
2022-09-14T07:07:11.315Z,20.59
2022-09-14T07:07:58.345Z,20.57
2022-09-14T07:08:45.168Z,20.61
2022-09-14T07:09:32.137Z,20.53
2022-09-14T07:10:19.379Z,20.63
2022-09-14T07:11:07.699Z,20.57
2022-09-14T07:11:54.926Z,20.59
2022-09-14T07:12:41.750Z,20.70
2022-09-14T07:13:29.589Z,20.89
2022-09-14T07:14:16.876Z,20.90
2022-09-14T07:15:04.978Z,20.84
2022-09-14T07:15:52.124Z,20.92
2022-09-14T07:16:40.271Z,20.93
2022-09-14T07:17:27.050Z,20.97
2022-09-14T07:18:13.940Z,20.97
2022-09-14T07:19:03.280Z,20.92
2022-09-14T07:19:50.010Z,20.98
2022-09-14T07:20:36.794Z,21.13
2022-09-14T07:21:24.358Z,21.11
2022-09-14T07:22:11.063Z,21.22
2022-09-14T07:22:57.970Z,21.31
2022-09-14T07:23:46.940Z,21.41
2022-09-14T07:24:33.701Z,21.54
2022-09-14T07:25:20.490Z,21.67
2022-09-14T07:26:16.669Z,21.70
2022-09-14T07:27:03.638Z,21.76
2022-09-14T07:27:50.555Z,21.80
2022-09-14T07:28:37.962Z,21.81
2022-09-14T07:29:24.981Z,21.92
2022-09-14T07:30:13.010Z,22.06
2022-09-14T07:31:00.353Z,22.15
2022-09-14T07:31:49.988Z,22.27
2022-09-14T07:32:36.790Z,22.31
2022-09-14T07:33:23.810Z,22.38
2022-09-14T07:34:11.541Z,22.46
2022-09-14T07:34:58.499Z,22.45
2022-09-14T07:35:45.260Z,22.35
2022-09-14T07:36:35.400Z,22.40
2022-09-14T07:37:22.219Z,22.52
2022-09-14T07:38:09.050Z,22.53
2022-09-14T07:38:56.459Z,22.51
2022-09-14T07:39:43.317Z,22.52
2022-09-14T07:40:30.488Z,22.59
2022-09-14T07:41:17.371Z,22.71
2022-09-14T07:42:04.331Z,22.54
2022-09-14T07:42:55.574Z,22.54
2022-09-14T07:43:44.581Z,22.58
2022-09-14T07:44:31.400Z,22.65
2022-09-14T07:45:18.121Z,22.75
2022-09-14T07:46:06.027Z,22.68
2022-09-14T07:46:52.870Z,22.57
2022-09-14T07:47:39.569Z,22.64
2022-09-14T07:48:26.650Z,22.69
2022-09-14T07:49:14.561Z,22.63
2022-09-14T07:50:01.325Z,22.65
2022-09-14T07:50:48.129Z,22.62
2022-09-14T07:51:37.041Z,22.66
2022-09-14T07:52:23.810Z,22.73
2022-09-14T07:53:10.600Z,22.71
2022-09-14T07:53:57.609Z,22.82
2022-09-14T07:54:44.411Z,22.89
2022-09-14T07:55:31.161Z,22.92
2022-09-14T07:56:18.060Z,23.00
2022-09-14T07:57:05.110Z,22.97
2022-09-14T07:57:56.422Z,23.00
2022-09-14T07:58:44.538Z,23.03
2022-09-14T07:59:35.969Z,23.09
2022-09-14T08:00:24.434Z,23.11
2022-09-14T08:01:13.456Z,23.28
2022-09-14T08:02:00.405Z,23.32
2022-09-14T08:02:52.818Z,23.26
2022-09-14T08:03:46.220Z,22.97
2022-09-14T08:04:36.800Z,23.01
2022-09-14T08:05:23.999Z,23.04
2022-09-14T08:06:21.582Z,23.12
2022-09-14T08:07:09.303Z,23.11
2022-09-14T08:07:56.570Z,23.35
2022-09-14T08:08:46.670Z,23.45
2022-09-14T08:09:33.542Z,23.48
2022-09-14T08:10:20.335Z,23.62
2022-09-14T08:11:11.248Z,23.74
2022-09-14T08:11:58.046Z,23.70
2022-09-14T08:12:44.741Z,23.43
2022-09-14T08:13:32.961Z,23.47
2022-09-14T08:14:19.620Z,23.60
2022-09-14T08:15:07.027Z,23.68
2022-09-14T08:15:53.741Z,23.77
2022-09-14T08:16:41.223Z,23.78
2022-09-14T08:17:28.303Z,23.77
2022-09-14T08:18:15.078Z,23.73
2022-09-14T08:19:03.981Z,23.76
2022-09-14T08:19:52.328Z,23.80
2022-09-14T08:20:39.222Z,23.83
2022-09-14T08:21:28.220Z,23.86
2022-09-14T08:22:15.130Z,23.89
2022-09-14T08:23:01.866Z,23.95
2022-09-14T08:23:49.080Z,24.07
2022-09-14T08:24:35.908Z,24.18
2022-09-14T08:25:22.667Z,24.28
2022-09-14T08:26:27.750Z,24.42
2022-09-14T08:27:17.148Z,24.55
2022-09-14T08:28:04.148Z,24.05
2022-09-14T08:28:51.816Z,24.13
2022-09-14T08:29:39.949Z,24.08
2022-09-14T08:30:26.703Z,24.05
2022-09-14T08:31:21.054Z,24.17
2022-09-14T08:32:07.884Z,24.12
2022-09-14T08:32:57.032Z,24.13
2022-09-14T08:33:48.521Z,24.03
2022-09-14T08:34:35.440Z,24.20
2022-09-14T08:35:40.853Z,24.32
2022-09-14T08:36:31.500Z,23.99
2022-09-14T08:37:18.481Z,23.91
2022-09-14T08:38:05.178Z,23.84
2022-09-14T08:38:52.290Z,23.82
2022-09-14T08:39:39.018Z,23.73
2022-09-14T08:40:25.949Z,23.66
2022-09-14T08:41:18.328Z,23.57
2022-09-14T08:42:06.400Z,23.52
2022-09-14T08:42:55.790Z,23.55
2022-09-14T08:43:42.490Z,23.60
2022-09-14T08:44:44.923Z,23.70
2022-09-14T08:45:32.032Z,23.83
2022-09-14T08:46:31.451Z,23.86
2022-09-14T08:47:34.302Z,23.79
2022-09-14T08:48:30.761Z,23.61
2022-09-14T08:49:30.290Z,23.76
2022-09-14T08:50:19.982Z,23.68
2022-09-14T08:51:06.807Z,23.74
2022-09-14T08:51:53.647Z,23.69
2022-09-14T08:52:44.641Z,23.71
2022-09-14T08:53:35.450Z,23.81
2022-09-14T08:54:22.558Z,23.81
2022-09-14T08:55:30.908Z,23.77
2022-09-14T08:56:21.891Z,23.84
2022-09-14T08:57:29.003Z,23.89
2022-09-14T08:58:15.755Z,24.05
2022-09-14T08:59:08.950Z,24.21
2022-09-14T09:00:01.875Z,24.18
2022-09-14T09:01:02.473Z,24.16
2022-09-14T09:02:20.050Z,24.16
2022-09-14T09:03:25.580Z,24.08
2022-09-14T09:04:29.615Z,24.19
2022-09-14T09:05:36.870Z,24.28
2022-09-14T09:06:52.730Z,24.27
2022-09-14T09:07:46.650Z,24.33
2022-09-14T09:08:48.335Z,24.37
2022-09-14T09:09:45.168Z,24.43
2022-09-14T09:10:32.501Z,24.36
2022-09-14T09:11:21.370Z,24.46
2022-09-14T09:12:13.589Z,24.64
2022-09-14T09:13:01.486Z,24.59
2022-09-14T09:13:50.058Z,24.62
2022-09-14T09:14:40.888Z,24.69
2022-09-14T09:15:34.857Z,24.59
2022-09-14T09:16:24.488Z,24.69
2022-09-14T09:17:25.140Z,24.66
2022-09-14T09:18:15.418Z,24.22
2022-09-14T09:19:06.079Z,24.29
2022-09-14T09:20:23.627Z,24.37
2022-09-14T09:21:16.580Z,24.58
2022-09-14T09:22:06.110Z,24.80
2022-09-14T09:23:17.120Z,24.71
2022-09-14T09:24:18.340Z,24.73
2022-09-14T09:25:05.470Z,24.55
2022-09-14T09:26:19.916Z,24.49
2022-09-14T09:27:14.362Z,24.58
2022-09-14T09:28:03.499Z,24.51
2022-09-14T09:28:52.658Z,24.57
2022-09-14T09:29:39.840Z,24.58
2022-09-14T09:30:28.888Z,24.71
2022-09-14T09:31:17.555Z,24.27
2022-09-14T09:32:04.940Z,24.35
2022-09-14T09:32:52.247Z,24.23
2022-09-14T09:33:39.250Z,24.44
2022-09-14T09:34:30.410Z,24.59
2022-09-14T09:35:20.828Z,24.57
2022-09-14T09:36:08.338Z,24.50
2022-09-14T09:37:00.983Z,24.57
2022-09-14T09:37:47.689Z,24.69
2022-09-14T09:38:34.808Z,24.65
2022-09-14T09:39:23.294Z,24.74
2022-09-14T09:40:22.956Z,24.64
2022-09-14T09:41:23.436Z,24.69
2022-09-14T09:42:23.730Z,24.87
2022-09-14T09:43:24.471Z,24.96
2022-09-14T09:44:20.550Z,24.98
2022-09-14T09:45:07.420Z,24.82
2022-09-14T09:46:04.780Z,24.77
2022-09-14T09:46:55.836Z,24.54
2022-09-14T09:47:43.099Z,24.49
2022-09-14T09:48:33.789Z,24.62
2022-09-14T09:49:23.528Z,24.59
2022-09-14T09:50:13.890Z,24.50
2022-09-14T09:51:20.909Z,24.64
2022-09-14T09:52:15.790Z,24.68
2022-09-14T09:53:06.702Z,24.58
2022-09-14T09:54:17.262Z,24.64
2022-09-14T09:55:05.610Z,24.87
2022-09-14T09:55:52.499Z,25.12
2022-09-14T09:56:41.929Z,25.12
2022-09-14T09:57:34.507Z,25.03
2022-09-14T09:58:21.938Z,25.02
2022-09-14T09:59:36.273Z,25.16
2022-09-14T10:00:24.448Z,25.21
2022-09-14T10:01:38.297Z,24.90
2022-09-14T10:02:30.680Z,24.74
2022-09-14T10:03:28.742Z,24.75
2022-09-14T10:04:25.470Z,24.80
2022-09-14T10:05:18.159Z,24.98
2022-09-14T10:06:10.240Z,25.01
2022-09-14T10:06:58.142Z,24.84
2022-09-14T10:07:53.049Z,24.72
2022-09-14T10:08:44.400Z,24.70
2022-09-14T10:09:31.150Z,24.59
2022-09-14T10:10:21.139Z,24.58
2022-09-14T10:11:31.019Z,24.55
2022-09-14T10:12:17.826Z,24.45
2022-09-14T10:13:06.880Z,24.49
2022-09-14T10:13:53.798Z,24.50
2022-09-14T10:14:40.890Z,24.47
2022-09-14T10:15:34.974Z,24.21
2022-09-14T10:16:21.972Z,24.31
2022-09-14T10:17:22.182Z,24.47
2022-09-14T10:18:17.219Z,24.57
2022-09-14T10:19:04.605Z,24.52
2022-09-14T10:19:54.183Z,24.32
2022-09-14T10:20:54.424Z,24.35
2022-09-14T10:22:26.286Z,24.35
2022-09-14T10:23:24.359Z,24.32
2022-09-14T10:24:18.050Z,23.97
2022-09-14T10:25:25.919Z,24.02
2022-09-14T10:26:12.661Z,23.98
2022-09-14T10:26:59.480Z,23.92
2022-09-14T10:27:53.179Z,24.05
2022-09-14T10:28:44.670Z,24.11
2022-09-14T10:29:37.804Z,24.09
2022-09-14T10:30:51.218Z,24.14
2022-09-14T10:31:39.766Z,24.33
2022-09-14T10:32:27.419Z,24.39
2022-09-14T10:33:16.261Z,24.38
2022-09-14T10:34:17.327Z,24.43
2022-09-14T10:35:12.470Z,24.58
2022-09-14T10:36:26.423Z,24.36
2022-09-14T10:37:25.759Z,24.36
2022-09-14T10:38:18.560Z,24.58
2022-09-14T10:39:24.099Z,24.58
2022-09-14T10:40:18.834Z,24.55
2022-09-14T10:41:22.717Z,24.58
2022-09-14T10:42:12.250Z,24.74
2022-09-14T10:43:31.839Z,24.68
2022-09-14T10:44:45.750Z,24.89
2022-09-14T10:45:37.244Z,24.90
2022-09-14T10:46:30.994Z,25.00
2022-09-14T10:47:32.909Z,25.09
2022-09-14T10:48:36.320Z,25.25
2022-09-14T10:49:45.171Z,25.11
2022-09-14T10:51:04.480Z,25.20
2022-09-14T10:52:00.340Z,25.44
2022-09-14T10:53:05.361Z,25.46